Informes METAR cercanos


LEVC - Manises, Valencia, ESPAÑA
Distance from station: NNE 72km
Actualización: 17/01/2019 07:30
Muy nuboso
Muy nuboso
 Viento del O
Viento: O 6 km/h
Temperatura: 5°C
Rocío: 3°C
Humedad: 87%
Barómetro: 1016 hPa
Clouds: Muy nuboso
Visibility: 10 km
Cloud details: Muy nuboso 1219 m
2019/01/17 06:30 LEVC 170630Z 28003KT 240V300 9999 BKN040 05/03 Q1016 NOSIG
LEAL - El Altet, Alicante, ESPAÑA
Distance from station: S 70km
Actualización: 17/01/2019 07:30
Muy nuboso
Muy nuboso
 Viento del O
Viento: O 13 km/h
Temperatura: 10°C
Sensacion frio: 8°C
Rocío: 2°C
Humedad: 58%
Barómetro: 1015 hPa
Clouds: Muy nuboso
Visibility: 10 km
Cloud details: Muy nuboso 1890 m
2019/01/17 06:30 LEAL 170630Z 28007KT 240V310 9999 BKN062 10/02 Q1015 NOSIG
 
LELC - San Javier, Murcia, ESPAÑA
Distance from station: SSO 188km
Actualización: 17/01/2019 07:30
Algunas nubes
Algunas nubes
 Viento del OSO
Viento: OSO 9 km/h
Temperatura: 5°C
Sensacion frio: 3°C
Rocío: 4°C
Humedad: 93%
Barómetro: 1016 hPa
Clouds: Algunas nubes
Visibility: 9 km
Cloud details: Algunas nubes 1646 m
2019/01/17 06:30 LELC 170630Z 24005KT 9000 FEW054 05/04 Q1016 NOSIG
LEAB - Los Llanos, Albacete, ESPAÑA
Distance from station: O 143km
Actualización: 17/01/2019 07:00
Algunas nubes
Algunas nubes
 Viento del SO
Viento: SO 6 km/h
Temperatura: -2°C
Rocío: -2°C
Humedad: 100%
Barómetro: 1016 hPa
Clouds: Algunas nubes
Visibility: 6 km
Cloud details: Algunas nubes 701 m
2019/01/17 06:00 LEAB 170600Z 22003KT 6000 FEW023 M02/M02 Q1016 NOSIG